createdAt,value
2023-02-12T00:01:13.459Z,5.13
2023-02-12T00:03:40.942Z,5.68
2023-02-12T00:06:08.466Z,4.72
2023-02-12T00:08:35.361Z,4.88
2023-02-12T00:11:13.833Z,4.95
2023-02-12T00:13:40.681Z,5.13
2023-02-12T00:16:13.828Z,5.07
2023-02-12T00:18:40.296Z,5.18
2023-02-12T00:21:06.966Z,5.72
2023-02-12T00:23:33.276Z,5.13
2023-02-12T00:25:59.579Z,5.22
2023-02-12T00:28:26.314Z,4.95
2023-02-12T00:30:52.725Z,5.05
2023-02-12T00:33:19.107Z,5.53
2023-02-12T00:35:45.437Z,5.47
2023-02-12T00:38:11.703Z,5.53
2023-02-12T00:40:38.332Z,6.13
2023-02-12T00:43:04.631Z,5.75
2023-02-12T00:45:30.932Z,4.90
2023-02-12T00:47:57.203Z,5.38
2023-02-12T00:50:23.531Z,5.80
2023-02-12T00:52:49.859Z,5.82
2023-02-12T00:57:55.667Z,5.72
2023-02-12T01:00:22.111Z,6.22
2023-02-12T01:02:48.459Z,5.13
2023-02-12T01:05:14.770Z,6.38
2023-02-12T01:07:41.162Z,6.30
2023-02-12T01:10:08.873Z,5.60
2023-02-12T01:12:35.257Z,6.05
2023-02-12T01:15:01.586Z,5.60
2023-02-12T01:17:27.897Z,4.97
2023-02-12T01:19:57.927Z,5.25
2023-02-12T01:22:24.944Z,5.35
2023-02-12T01:24:51.232Z,5.68
2023-02-12T01:27:17.572Z,5.93
2023-02-12T01:29:43.886Z,5.38
2023-02-12T01:32:11.334Z,6.05
2023-02-12T01:34:38.067Z,5.88
2023-02-12T01:37:04.447Z,4.70
2023-02-12T01:39:30.776Z,5.05
2023-02-12T01:41:57.148Z,4.40
2023-02-12T01:44:28.563Z,5.25
2023-02-12T01:46:57.855Z,5.68
2023-02-12T01:49:43.281Z,5.68
2023-02-12T01:54:41.290Z,5.15
2023-02-12T01:57:09.286Z,6.15
2023-02-12T01:59:37.545Z,5.18
2023-02-12T02:02:05.105Z,5.10
2023-02-12T02:04:40.018Z,4.68
2023-02-12T02:07:08.117Z,5.25
2023-02-12T02:09:37.257Z,5.07
2023-02-12T02:12:04.099Z,5.22
2023-02-12T02:14:30.456Z,4.80
2023-02-12T02:17:30.852Z,5.10
2023-02-12T02:20:28.684Z,5.10
2023-02-12T02:23:39.241Z,5.18
2023-02-12T02:26:44.984Z,6.32
2023-02-12T02:29:20.064Z,5.82
2023-02-12T02:31:52.244Z,4.85
2023-02-12T02:34:29.316Z,5.50
2023-02-12T02:37:15.008Z,4.85
2023-02-12T02:39:50.627Z,3.95
2023-02-12T02:42:24.839Z,4.80
2023-02-12T02:45:02.087Z,4.97
2023-02-12T02:47:45.855Z,5.18
2023-02-12T02:50:16.726Z,5.57
2023-02-12T02:52:49.907Z,6.15
2023-02-12T02:55:20.127Z,5.43
2023-02-12T02:57:58.603Z,5.25
2023-02-12T03:00:33.627Z,5.35
2023-02-12T03:03:06.468Z,4.50
2023-02-12T03:05:37.820Z,5.13
2023-02-12T03:08:15.166Z,5.15
2023-02-12T03:13:32.272Z,5.15
2023-02-12T03:16:04.539Z,4.85
2023-02-12T03:18:36.217Z,4.28
2023-02-12T03:21:09.587Z,5.00
2023-02-12T03:26:15.603Z,5.03
2023-02-12T03:28:42.213Z,3.78
2023-02-12T03:31:41.969Z,4.50
2023-02-12T03:34:16.583Z,4.97
2023-02-12T03:36:48.305Z,4.45
2023-02-12T03:39:51.989Z,4.72
2023-02-12T03:42:27.497Z,4.88
2023-02-12T03:47:35.881Z,4.18
2023-02-12T03:50:15.504Z,4.38
2023-02-12T03:52:42.787Z,4.25
2023-02-12T03:55:10.179Z,4.60
2023-02-12T03:57:44.454Z,4.70
2023-02-12T04:00:18.264Z,3.97
2023-02-12T04:02:45.040Z,4.15
2023-02-12T04:05:27.894Z,4.55
2023-02-12T04:07:56.448Z,4.15
2023-02-12T04:10:30.767Z,4.20
2023-02-12T04:13:03.437Z,4.05
2023-02-12T04:15:44.834Z,3.85
2023-02-12T04:18:41.027Z,4.20
2023-02-12T04:21:35.334Z,4.88
2023-02-12T04:24:20.468Z,4.55
2023-02-12T04:27:06.984Z,4.35
2023-02-12T04:29:42.015Z,3.95
2023-02-12T04:32:37.545Z,3.88
2023-02-12T04:35:27.683Z,4.93
2023-02-12T04:38:00.720Z,4.38
2023-02-12T04:40:27.746Z,4.68
2023-02-12T04:42:54.352Z,4.85
2023-02-12T04:45:24.585Z,4.35
2023-02-12T04:47:51.347Z,4.97
2023-02-12T04:50:18.041Z,5.00
2023-02-12T04:52:44.671Z,4.57
2023-02-12T04:55:11.082Z,5.07
2023-02-12T04:57:37.428Z,4.60
2023-02-12T05:00:06.657Z,4.43
2023-02-12T05:02:34.054Z,4.80
2023-02-12T05:07:26.989Z,3.53
2023-02-12T05:09:54.856Z,4.53
2023-02-12T05:12:21.372Z,4.45
2023-02-12T05:14:47.691Z,5.13
2023-02-12T05:17:14.058Z,4.18
2023-02-12T05:19:40.365Z,4.05
2023-02-12T05:22:06.766Z,4.60
2023-02-12T05:24:33.131Z,4.72
2023-02-12T05:26:59.428Z,4.45
2023-02-12T05:29:25.739Z,3.88
2023-02-12T05:31:52.149Z,4.68
2023-02-12T05:34:18.591Z,4.43
2023-02-12T05:36:44.909Z,3.78
2023-02-12T05:39:11.309Z,4.10
2023-02-12T05:41:37.688Z,4.40
2023-02-12T05:44:05.084Z,4.40
2023-02-12T05:48:58.153Z,3.72
2023-02-12T05:51:27.248Z,3.92
2023-02-12T05:53:57.531Z,3.85
2023-02-12T05:56:26.804Z,3.88
2023-02-12T05:58:56.090Z,4.65
2023-02-12T06:01:32.816Z,4.22
2023-02-12T06:04:00.491Z,4.20
2023-02-12T06:06:28.280Z,4.13
2023-02-12T06:08:55.002Z,4.32
2023-02-12T06:11:21.662Z,4.40
2023-02-12T06:13:49.023Z,4.70
2023-02-12T06:18:52.819Z,3.97
2023-02-12T06:21:20.533Z,4.03
2023-02-12T06:23:47.674Z,5.22
2023-02-12T06:26:14.158Z,4.40
2023-02-12T06:28:40.572Z,5.45
2023-02-12T06:31:17.693Z,4.95
2023-02-12T06:33:44.114Z,4.60
2023-02-12T06:36:10.481Z,5.38
2023-02-12T06:38:36.795Z,5.45
2023-02-12T06:41:04.215Z,5.07
2023-02-12T06:45:59.960Z,5.03
2023-02-12T06:48:26.366Z,5.70
2023-02-12T06:50:52.663Z,5.68
2023-02-12T06:53:18.983Z,5.70
2023-02-12T06:55:45.301Z,5.70
2023-02-12T06:58:11.615Z,5.18
2023-02-12T07:00:37.950Z,5.20
2023-02-12T07:03:04.282Z,4.82
2023-02-12T07:05:30.559Z,5.13
2023-02-12T07:07:56.924Z,5.22
2023-02-12T07:10:23.230Z,4.78
2023-02-12T07:12:49.524Z,4.70
2023-02-12T07:15:15.885Z,4.82
2023-02-12T07:17:42.169Z,5.53
2023-02-12T07:20:08.954Z,8.18
2023-02-12T07:22:36.395Z,7.32
2023-02-12T07:25:02.993Z,7.32
2023-02-12T07:27:29.306Z,8.20
2023-02-12T07:29:55.608Z,7.25
2023-02-12T07:32:21.940Z,5.55
2023-02-12T07:34:48.253Z,6.90
2023-02-12T07:37:14.592Z,5.72
2023-02-12T07:39:40.901Z,5.88
2023-02-12T07:42:07.221Z,6.47
2023-02-12T07:44:33.536Z,6.97
2023-02-12T07:46:59.880Z,5.70
2023-02-12T07:49:26.185Z,3.80
2023-02-12T07:51:52.475Z,5.13
2023-02-12T07:54:18.795Z,7.18
2023-02-12T07:56:45.192Z,5.65
2023-02-12T07:59:13.581Z,6.97
2023-02-12T08:01:42.525Z,4.70
2023-02-12T08:04:12.346Z,5.90
2023-02-12T08:06:41.540Z,5.72
2023-02-12T08:09:11.030Z,4.45
2023-02-12T08:11:39.589Z,4.25
2023-02-12T08:14:06.316Z,3.78
2023-02-12T08:16:37.185Z,3.92
2023-02-12T08:19:16.629Z,4.90
2023-02-12T08:21:45.375Z,4.85
2023-02-12T08:24:11.722Z,4.25
2023-02-12T08:26:39.418Z,4.07
2023-02-12T08:29:12.037Z,4.78
2023-02-12T08:31:42.977Z,7.15
2023-02-12T08:34:20.936Z,5.18
2023-02-12T08:36:49.585Z,5.60
2023-02-12T08:41:42.677Z,4.38
2023-02-12T08:44:10.161Z,5.00
2023-02-12T08:46:38.611Z,5.43
2023-02-12T08:49:12.387Z,5.97
2023-02-12T08:51:40.968Z,6.30
2023-02-12T08:54:10.101Z,5.55
2023-02-12T08:56:36.543Z,5.43
2023-02-12T08:59:05.085Z,4.22
2023-02-12T09:01:34.134Z,4.43
2023-02-12T09:04:01.018Z,3.70
2023-02-12T09:06:27.758Z,4.63
2023-02-12T09:08:55.628Z,3.92
2023-02-12T09:11:25.058Z,4.63
2023-02-12T09:13:51.327Z,3.67
2023-02-12T09:16:17.686Z,3.97
2023-02-12T09:18:44.324Z,4.35
2023-02-12T09:21:13.288Z,3.60
2023-02-12T09:23:39.925Z,4.43
2023-02-12T09:26:11.512Z,4.03
2023-02-12T09:28:39.355Z,5.38
2023-02-12T09:31:06.629Z,5.13
2023-02-12T09:33:33.472Z,4.60
2023-02-12T09:36:04.624Z,4.35
2023-02-12T09:38:31.499Z,3.70
2023-02-12T09:41:18.889Z,3.78
2023-02-12T09:43:56.620Z,3.25
2023-02-12T09:46:31.224Z,4.07
2023-02-12T09:49:18.833Z,3.25
2023-02-12T09:51:51.384Z,2.80
2023-02-12T09:54:21.061Z,3.10
2023-02-12T09:56:56.675Z,3.85
2023-02-12T09:59:34.899Z,3.75
2023-02-12T10:02:01.669Z,3.00
2023-02-12T10:04:28.334Z,3.10
2023-02-12T10:07:18.778Z,2.80
2023-02-12T10:10:08.051Z,3.10
2023-02-12T10:12:56.784Z,3.35
2023-02-12T10:15:26.235Z,3.28
2023-02-12T10:18:23.502Z,3.45
2023-02-12T10:24:12.319Z,3.17
2023-02-12T10:29:38.060Z,3.38
2023-02-12T10:34:57.475Z,3.55
2023-02-12T10:40:17.046Z,3.22
2023-02-12T10:42:47.526Z,3.97
2023-02-12T10:45:20.007Z,3.97
2023-02-12T10:47:50.324Z,3.20
2023-02-12T10:50:27.220Z,4.00
2023-02-12T10:52:56.832Z,4.50
2023-02-12T10:55:24.480Z,5.30
2023-02-12T10:57:51.037Z,5.82
2023-02-12T11:00:31.908Z,5.57
2023-02-12T11:03:04.111Z,5.82
2023-02-12T11:05:32.466Z,4.90
2023-02-12T11:07:59.685Z,4.90
2023-02-12T11:10:41.989Z,4.35
2023-02-12T11:13:24.833Z,4.00
2023-02-12T11:15:51.512Z,4.13
2023-02-12T11:18:29.696Z,3.97
2023-02-12T11:21:00.616Z,4.00
2023-02-12T11:23:28.872Z,3.67
2023-02-12T11:26:02.030Z,4.72
2023-02-12T11:28:30.099Z,4.18
2023-02-12T11:31:20.320Z,4.55
2023-02-12T11:33:46.688Z,3.95
2023-02-12T11:36:21.602Z,8.65
2023-02-12T11:38:58.088Z,4.40
2023-02-12T11:41:35.148Z,4.35
2023-02-12T11:44:26.286Z,5.10
2023-02-12T11:47:18.269Z,6.07
2023-02-12T11:49:52.158Z,4.68
2023-02-12T11:52:23.151Z,5.22
2023-02-12T11:54:52.880Z,4.90
2023-02-12T11:57:37.865Z,4.78
2023-02-12T12:00:14.593Z,4.80
2023-02-12T12:02:47.965Z,4.82
2023-02-12T12:05:22.018Z,5.60
2023-02-12T12:08:02.159Z,5.70
2023-02-12T12:10:57.690Z,4.70
2023-02-12T12:13:33.492Z,4.82
2023-02-12T12:16:52.481Z,4.65
2023-02-12T12:19:24.134Z,5.07
2023-02-12T12:22:13.614Z,4.25
2023-02-12T12:24:51.731Z,4.60
2023-02-12T12:27:25.005Z,4.00
2023-02-12T12:32:26.256Z,3.58
2023-02-12T12:34:52.659Z,4.13
2023-02-12T12:37:21.900Z,3.55
2023-02-12T12:39:56.008Z,3.22
2023-02-12T12:42:37.488Z,4.18
2023-02-12T12:45:06.738Z,3.60
2023-02-12T12:47:39.229Z,4.75
2023-02-12T12:50:36.370Z,4.53
2023-02-12T12:53:16.209Z,4.57
2023-02-12T12:56:19.050Z,4.15
2023-02-12T12:59:03.976Z,5.13
2023-02-12T13:01:52.827Z,4.78
2023-02-12T13:04:41.492Z,4.63
2023-02-12T13:07:34.928Z,4.35
2023-02-12T13:10:16.203Z,4.45
2023-02-12T13:12:54.166Z,3.90
2023-02-12T13:15:29.645Z,5.63
2023-02-12T13:18:19.003Z,3.92
2023-02-12T13:20:50.589Z,3.83
2023-02-12T13:23:35.375Z,4.28
2023-02-12T13:26:13.568Z,4.35
2023-02-12T13:28:46.352Z,3.08
2023-02-12T13:31:32.372Z,3.65
2023-02-12T13:34:06.883Z,3.03
2023-02-12T13:36:36.661Z,3.70
2023-02-12T13:39:16.070Z,3.63
2023-02-12T13:41:52.332Z,3.72
2023-02-12T13:44:57.969Z,3.72
2023-02-12T13:47:46.114Z,3.78
2023-02-12T13:50:15.422Z,3.83
2023-02-12T13:52:53.077Z,4.68
2023-02-12T13:55:22.518Z,4.00
2023-02-12T13:58:26.733Z,3.30
2023-02-12T14:00:59.781Z,3.60
2023-02-12T14:03:28.714Z,3.95
2023-02-12T14:06:17.543Z,3.97
2023-02-12T14:08:47.371Z,3.75
2023-02-12T14:11:21.700Z,4.65
2023-02-12T14:13:58.404Z,4.05
2023-02-12T14:16:30.582Z,3.83
2023-02-12T14:19:37.574Z,4.25
2023-02-12T14:22:12.890Z,4.28
2023-02-12T14:24:39.188Z,3.70
2023-02-12T14:27:18.265Z,4.18
2023-02-12T14:30:09.198Z,4.07
2023-02-12T14:32:50.776Z,4.28
2023-02-12T14:35:29.253Z,4.45
2023-02-12T14:38:01.010Z,4.80
2023-02-12T14:40:36.703Z,4.78
2023-02-12T14:43:23.041Z,4.60
2023-02-12T14:45:52.912Z,3.47
2023-02-12T14:48:41.388Z,3.83
2023-02-12T14:51:19.835Z,4.68
2023-02-12T14:53:48.350Z,3.90
2023-02-12T14:56:20.292Z,5.32
2023-02-12T14:58:46.929Z,4.03
2023-02-12T15:01:13.309Z,4.38
2023-02-12T15:03:52.538Z,6.35
2023-02-12T15:06:24.622Z,4.70
2023-02-12T15:09:11.740Z,4.97
2023-02-12T15:11:56.847Z,5.05
2023-02-12T15:14:27.270Z,4.28
2023-02-12T15:17:08.024Z,4.18
2023-02-12T15:19:42.661Z,4.10
2023-02-12T15:22:32.086Z,4.75
2023-02-12T15:25:21.341Z,4.43
2023-02-12T15:27:49.280Z,4.03
2023-02-12T15:30:26.468Z,4.07
2023-02-12T15:32:56.140Z,4.70
2023-02-12T15:35:30.240Z,4.00
2023-02-12T15:37:58.278Z,4.15
2023-02-12T15:40:24.685Z,4.60
2023-02-12T15:43:00.020Z,4.40
2023-02-12T15:45:35.258Z,4.70
2023-02-12T15:48:16.821Z,4.68
2023-02-12T15:50:49.070Z,6.80
2023-02-12T15:53:16.122Z,6.93
2023-02-12T15:55:46.165Z,5.80
2023-02-12T15:58:28.935Z,6.20
2023-02-12T16:01:01.925Z,5.32
2023-02-12T16:03:37.386Z,5.85
2023-02-12T16:06:08.043Z,6.00
2023-02-12T16:08:35.697Z,6.28
2023-02-12T16:11:02.627Z,7.00
2023-02-12T16:13:34.512Z,6.07
2023-02-12T16:16:17.553Z,6.20
2023-02-12T16:18:43.935Z,6.82
2023-02-12T16:21:20.378Z,7.13
2023-02-12T16:23:48.582Z,5.90
2023-02-12T16:26:21.222Z,6.22
2023-02-12T16:28:50.108Z,6.43
2023-02-12T16:31:17.387Z,5.75
2023-02-12T16:33:47.376Z,5.88
2023-02-12T16:36:19.515Z,5.53
2023-02-12T16:38:48.815Z,5.70
2023-02-12T16:41:19.938Z,5.55
2023-02-12T16:44:01.321Z,6.50
2023-02-12T16:46:33.177Z,7.90
2023-02-12T16:49:03.117Z,8.95
2023-02-12T16:51:31.471Z,8.30
2023-02-12T16:53:59.723Z,20.80
2023-02-12T16:56:30.854Z,6.82
2023-02-12T16:58:59.046Z,4.38
2023-02-12T17:01:36.789Z,4.88
2023-02-12T17:04:14.770Z,5.05
2023-02-12T17:06:41.084Z,4.35
2023-02-12T17:09:07.347Z,5.40
2023-02-12T17:11:33.659Z,5.40
2023-02-12T17:13:59.945Z,4.95
2023-02-12T17:16:31.222Z,4.60
2023-02-12T17:18:58.652Z,5.05
2023-02-12T17:21:29.341Z,4.45
2023-02-12T17:23:55.701Z,4.35
2023-02-12T17:26:24.872Z,3.90
2023-02-12T17:28:51.209Z,4.35
2023-02-12T17:31:17.688Z,3.40
2023-02-12T17:33:44.111Z,3.67
2023-02-12T17:36:11.263Z,3.83
2023-02-12T17:38:37.563Z,3.53
2023-02-12T17:41:09.806Z,3.38
2023-02-12T17:43:36.122Z,2.95
2023-02-12T17:46:08.215Z,3.42
2023-02-12T17:48:34.595Z,3.53
2023-02-12T17:51:00.896Z,3.50
2023-02-12T17:53:27.238Z,5.07
2023-02-12T17:55:53.558Z,3.67
2023-02-12T17:58:19.913Z,3.47
2023-02-12T18:00:46.255Z,3.42
2023-02-12T18:03:12.620Z,3.22
2023-02-12T18:05:42.702Z,3.40
2023-02-12T18:08:09.895Z,3.70
2023-02-12T18:10:43.641Z,3.13
2023-02-12T18:13:10.380Z,3.33
2023-02-12T18:15:39.393Z,2.88
2023-02-12T18:18:05.954Z,3.38
2023-02-12T18:20:32.352Z,3.72
2023-02-12T18:22:58.645Z,3.13
2023-02-12T18:25:24.962Z,3.20
2023-02-12T18:27:51.310Z,3.22
2023-02-12T18:30:18.029Z,3.63
2023-02-12T18:32:44.350Z,3.55
2023-02-12T18:35:10.712Z,3.75
2023-02-12T18:37:37.083Z,3.38
2023-02-12T18:40:03.888Z,3.47
2023-02-12T18:42:30.864Z,3.70
2023-02-12T18:44:57.167Z,4.50
2023-02-12T18:47:23.470Z,4.30
2023-02-12T18:49:49.836Z,5.87
2023-02-12T18:52:16.190Z,5.40
2023-02-12T18:54:42.602Z,5.22
2023-02-12T18:57:08.917Z,5.20
2023-02-12T18:59:41.043Z,6.90
2023-02-12T19:02:07.669Z,9.10
2023-02-12T19:04:34.170Z,9.32
2023-02-12T19:07:00.581Z,9.57
2023-02-12T19:09:27.087Z,8.75
2023-02-12T19:11:57.484Z,8.48
2023-02-12T19:14:25.471Z,8.90
2023-02-12T19:16:52.666Z,9.13
2023-02-12T19:19:23.788Z,8.27
2023-02-12T19:21:50.311Z,8.20
2023-02-12T19:24:19.929Z,7.57
2023-02-12T19:26:49.433Z,9.50
2023-02-12T19:29:15.762Z,9.50
2023-02-12T19:31:45.430Z,8.70
2023-02-12T19:34:20.821Z,8.63
2023-02-12T19:36:49.978Z,9.60
2023-02-12T19:39:19.587Z,9.00
2023-02-12T19:41:46.004Z,9.02
2023-02-12T19:44:19.085Z,8.48
2023-02-12T19:46:46.665Z,10.15
2023-02-12T19:49:16.320Z,8.90
2023-02-12T19:51:43.382Z,10.00
2023-02-12T19:54:12.572Z,9.93
2023-02-12T19:56:39.827Z,9.32
2023-02-12T20:01:33.284Z,12.70
2023-02-12T20:06:29.891Z,8.95
2023-02-12T20:08:56.569Z,9.70
2023-02-12T20:11:25.752Z,9.38
2023-02-12T20:13:52.517Z,9.68
2023-02-12T20:16:22.136Z,9.45
2023-02-12T20:18:51.723Z,10.13
2023-02-12T20:21:25.580Z,9.30
2023-02-12T20:23:52.202Z,11.90
2023-02-12T20:26:19.160Z,12.50
2023-02-12T20:28:46.297Z,10.30
2023-02-12T20:31:15.556Z,11.07
2023-02-12T20:33:42.837Z,10.60
2023-02-12T20:38:35.764Z,10.27
2023-02-12T20:41:02.955Z,11.85
2023-02-12T20:43:30.785Z,11.48
2023-02-12T20:46:04.423Z,11.82
2023-02-12T20:48:30.724Z,12.45
2023-02-12T20:51:03.190Z,11.15
2023-02-12T20:53:29.501Z,11.60
2023-02-12T20:56:00.736Z,13.00
2023-02-12T20:58:27.990Z,11.43
2023-02-12T21:03:20.585Z,10.48
2023-02-12T21:05:46.930Z,11.63
2023-02-12T21:08:13.197Z,11.20
2023-02-12T21:10:39.487Z,11.35
2023-02-12T21:13:05.815Z,12.10
2023-02-12T21:15:32.133Z,11.52
2023-02-12T21:17:58.418Z,12.35
2023-02-12T21:20:24.706Z,11.98
2023-02-12T21:22:50.997Z,11.82
2023-02-12T21:25:17.420Z,12.60
2023-02-12T21:27:43.784Z,12.13
2023-02-12T21:30:10.353Z,12.45
2023-02-12T21:32:36.659Z,12.25
2023-02-12T21:35:02.989Z,11.27
2023-02-12T21:37:29.297Z,12.02
2023-02-12T21:39:55.603Z,13.00
2023-02-12T21:42:21.956Z,12.35
2023-02-12T21:44:48.278Z,13.48
2023-02-12T21:47:14.553Z,12.18
2023-02-12T21:49:40.885Z,10.65
2023-02-12T21:52:07.228Z,12.88
2023-02-12T21:54:33.811Z,13.40
2023-02-12T21:57:00.355Z,13.57
2023-02-12T21:59:28.159Z,13.63
2023-02-12T22:01:55.996Z,12.73
2023-02-12T22:04:22.594Z,14.43
2023-02-12T22:06:50.711Z,12.73
2023-02-12T22:09:18.836Z,13.43
2023-02-12T22:11:45.167Z,14.45
2023-02-12T22:14:16.819Z,15.80
2023-02-12T22:16:43.681Z,14.77
2023-02-12T22:19:10.124Z,15.07
2023-02-12T22:21:38.659Z,15.93
2023-02-12T22:24:07.663Z,14.60
2023-02-12T22:26:34.395Z,15.43
2023-02-12T22:29:10.377Z,14.65
2023-02-12T22:31:38.716Z,14.63
2023-02-12T22:34:08.088Z,15.07
2023-02-12T22:36:36.142Z,16.10
2023-02-12T22:39:03.233Z,15.25
2023-02-12T22:41:29.562Z,15.23
2023-02-12T22:43:59.350Z,14.63
2023-02-12T22:46:26.258Z,15.15
2023-02-12T22:48:52.629Z,16.70
2023-02-12T22:51:24.876Z,16.98
2023-02-12T22:53:51.534Z,16.90
2023-02-12T22:56:18.078Z,16.75
2023-02-12T22:58:45.055Z,17.05
2023-02-12T23:01:14.499Z,15.35
2023-02-12T23:03:41.243Z,14.38
2023-02-12T23:06:11.319Z,16.35
2023-02-12T23:08:37.762Z,14.68
2023-02-12T23:11:06.409Z,13.85
2023-02-12T23:13:33.750Z,15.32
2023-02-12T23:16:00.218Z,16.48
2023-02-12T23:18:26.665Z,17.10
2023-02-12T23:20:53.535Z,15.30
2023-02-12T23:23:20.881Z,13.70
2023-02-12T23:25:47.675Z,13.93
2023-02-12T23:28:14.436Z,14.80
2023-02-12T23:30:40.814Z,15.20
2023-02-12T23:33:07.227Z,13.52
2023-02-12T23:35:33.494Z,13.73
2023-02-12T23:37:59.814Z,13.95
2023-02-12T23:40:26.146Z,12.68
2023-02-12T23:42:52.483Z,13.45
2023-02-12T23:45:18.815Z,12.98
2023-02-12T23:47:45.121Z,15.07
2023-02-12T23:50:11.431Z,12.25
2023-02-12T23:52:37.732Z,13.82
2023-02-12T23:55:04.434Z,13.50
2023-02-12T23:57:30.712Z,12.75
2023-02-12T23:59:57.050Z,13.02
